Time;durP1;ratioP1;P1;durP2;ratioP2;P2;SDS_P1;SDS_P2;PMS_P1;PMS_P2;Temp;Humidity;BMP_temperature;BMP_pressure;BME280_temperature;BME280_humidity;BME280_pressure;Samples;Min_cycle;Max_cycle;Signal;HPM_P1;HPM_P2
2021/08/13 00:02:07;;;;;;;1.33;1.23;;;24.90;49.10;;;;;;5136010;28;20055;-34
2021/08/13 00:04:33;;;;;;;1.00;1.00;;;24.90;49.20;;;;;;5135862;28;20195;-34
2021/08/13 00:06:59;;;;;;;0.90;0.90;;;24.90;49.20;;;;;;5135998;27;20070;-33
2021/08/13 00:09:24;;;;;;;0.90;0.90;;;24.90;49.20;;;;;;5135894;28;20058;-34
2021/08/13 00:11:50;;;;;;;1.00;1.00;;;24.90;49.20;;;;;;5136349;28;20043;-34
2021/08/13 00:14:16;;;;;;;0.90;0.90;;;24.90;49.30;;;;;;5136243;28;20073;-34
2021/08/13 00:16:41;;;;;;;1.85;1.10;;;24.90;49.30;;;;;;5136134;28;20086;-33
2021/08/13 00:19:07;;;;;;;1.10;1.00;;;24.90;49.30;;;;;;5135468;28;20051;-34
2021/08/13 00:21:33;;;;;;;1.20;1.10;;;24.90;49.30;;;;;;5136439;28;20063;-33
2021/08/13 00:23:59;;;;;;;1.30;1.20;;;24.80;49.30;;;;;;5135733;28;20490;-34
2021/08/13 00:26:27;;;;;;;0.85;0.85;;;24.90;49.30;;;;;;5135778;28;20406;-34
2021/08/13 00:28:53;;;;;;;0.95;0.93;;;24.80;49.30;;;;;;5135566;28;20126;-33
2021/08/13 00:31:19;;;;;;;1.15;1.05;;;24.80;49.30;;;;;;5135698;28;20063;-34
2021/08/13 00:33:45;;;;;;;1.20;1.00;;;24.80;49.30;;;;;;5116585;28;20092;-33
2021/08/13 00:36:11;;;;;;;1.40;1.30;;;24.80;49.30;;;;;;5117167;28;20054;-34
2021/08/13 00:38:37;;;;;;;1.00;1.00;;;24.80;49.30;;;;;;5116959;28;20051;-34
2021/08/13 00:41:03;;;;;;;1.08;1.00;;;24.80;49.30;;;;;;5117560;28;20454;-34
2021/08/13 00:43:30;;;;;;;0.95;0.90;;;24.80;49.30;;;;;;5116330;28;20059;-34
2021/08/13 00:45:56;;;;;;;1.00;1.00;;;24.80;49.30;;;;;;5116867;28;20047;-33
2021/08/13 00:48:33;;;;;;;1.02;1.02;;;24.80;49.30;;;;;;5116540;28;20043;-34
2021/08/13 00:51:12;;;;;;;1.30;1.20;;;24.80;49.90;;;;;;5117552;28;20482;-33
2021/08/13 00:53:39;;;;;;;0.95;0.88;;;24.80;49.30;;;;;;5116685;28;20051;-34
2021/08/13 00:56:05;;;;;;;1.15;1.05;;;24.80;49.40;;;;;;5115912;28;20056;-33
2021/08/13 00:58:43;;;;;;;1.10;1.08;;;24.80;49.40;;;;;;5116910;28;20145;-33
2021/08/13 01:01:31;;;;;;;1.00;1.00;;;24.80;49.40;;;;;;5117197;28;20546;-34
2021/08/13 01:03:57;;;;;;;0.90;0.90;;;24.80;49.40;;;;;;5116916;28;20051;-34
2021/08/13 01:06:26;;;;;;;1.13;1.05;;;24.80;49.40;;;;;;5116399;28;20051;-34
2021/08/13 01:08:51;;;;;;;1.30;1.17;;;24.80;49.40;;;;;;5135038;28;20059;-34
2021/08/13 01:11:37;;;;;;;0.80;0.80;;;24.80;49.40;;;;;;5115244;28;20056;-34
2021/08/13 01:14:40;;;;;;;1.30;1.20;;;24.80;49.40;;;;;;5116356;28;20051;-34
2021/08/13 01:17:10;;;;;;;1.20;1.10;;;24.80;49.40;;;;;;5115960;28;20063;-34
2021/08/13 01:20:04;;;;;;;0.90;0.90;;;24.80;49.40;;;;;;5114735;28;20047;-33
2021/08/13 01:22:41;;;;;;;1.20;1.10;;;24.80;49.40;;;;;;5116552;28;20440;-34
2021/08/13 01:25:09;;;;;;;1.10;1.00;;;24.80;49.40;;;;;;5115782;28;20059;-33
2021/08/13 01:27:42;;;;;;;1.20;1.10;;;24.80;49.40;;;;;;5114933;28;20052;-34
2021/08/13 01:30:14;;;;;;;0.90;0.90;;;24.80;49.40;;;;;;5115747;28;20063;-34
2021/08/13 01:33:08;;;;;;;1.15;1.05;;;24.80;49.40;;;;;;5116225;28;20073;-33
2021/08/13 01:35:45;;;;;;;1.50;1.30;;;24.80;49.70;;;;;;5116235;28;20043;-34
2021/08/13 01:38:17;;;;;;;1.10;1.00;;;24.80;49.40;;;;;;5099128;28;20051;-34
2021/08/13 01:40:48;;;;;;;1.10;1.10;;;24.80;49.40;;;;;;5116160;28;20089;-34
2021/08/13 01:43:19;;;;;;;0.90;0.90;;;24.80;49.40;;;;;;5116074;28;20062;-33
2021/08/13 01:45:47;;;;;;;0.97;0.93;;;24.80;49.40;;;;;;5116268;28;20615;-34
2021/08/13 01:48:15;;;;;;;1.00;0.93;;;24.80;49.40;;;;;;5115936;28;20054;-34
2021/08/13 01:50:41;;;;;;;1.27;1.17;;;24.80;50.00;;;;;;5116241;28;20050;-34
2021/08/13 01:53:08;;;;;;;0.80;0.80;;;24.80;49.70;;;;;;5115935;28;20134;-34
2021/08/13 01:55:35;;;;;;;1.10;1.00;;;24.70;49.40;;;;;;5115953;28;20051;-34
2021/08/13 01:58:03;;;;;;;1.10;1.00;;;24.80;49.40;;;;;;5115715;28;20055;-33
2021/08/13 02:00:29;;;;;;;1.17;1.17;;;24.80;49.40;;;;;;5115802;28;20376;-34
2021/08/13 02:02:56;;;;;;;0.98;0.98;;;24.70;49.40;;;;;;5114556;28;20400;-33
2021/08/13 02:05:26;;;;;;;1.10;1.00;;;24.70;49.40;;;;;;5134064;28;20047;-34
2021/08/13 02:07:54;;;;;;;0.93;0.93;;;24.80;49.40;;;;;;5115730;28;20069;-34
2021/08/13 02:10:20;;;;;;;1.00;0.90;;;24.70;49.40;;;;;;5134015;28;20059;-33
2021/08/13 02:12:46;;;;;;;0.90;0.90;;;24.70;49.50;;;;;;5134113;28;20055;-34
2021/08/13 02:15:13;;;;;;;0.90;0.90;;;24.70;49.40;;;;;;5115381;28;20119;-34
2021/08/13 02:17:47;;;;;;;1.15;1.05;;;24.70;49.40;;;;;;5115496;28;20051;-34
2021/08/13 02:20:16;;;;;;;1.00;1.00;;;24.70;49.40;;;;;;5115458;28;20054;-34
2021/08/13 02:22:43;;;;;;;1.13;1.02;;;24.70;49.40;;;;;;5116139;28;20486;-34
2021/08/13 02:25:11;;;;;;;1.20;1.10;;;24.70;49.40;;;;;;5115587;28;20054;-34
2021/08/13 02:27:38;;;;;;;1.13;1.02;;;24.70;49.40;;;;;;5115811;28;20050;-34
2021/08/13 02:30:07;;;;;;;0.80;0.80;;;24.70;49.50;;;;;;5115226;27;20057;-34
2021/08/13 02:32:34;;;;;;;0.73;0.73;;;24.70;49.40;;;;;;5114770;28;20078;-34
2021/08/13 02:35:03;;;;;;;1.08;0.98;;;24.80;49.50;;;;;;5115892;28;20047;-34
2021/08/13 02:37:55;;;;;;;1.23;1.13;;;24.70;49.50;;;;;;5115531;28;20051;-34
2021/08/13 02:40:32;;;;;;;0.90;0.90;;;24.70;49.50;;;;;;5114875;28;20051;-34
2021/08/13 02:43:15;;;;;;;0.90;0.90;;;24.70;49.50;;;;;;5115818;28;20467;-34
2021/08/13 02:45:44;;;;;;;1.15;1.05;;;24.70;49.50;;;;;;5133868;28;20051;-34
2021/08/13 02:48:10;;;;;;;0.90;0.90;;;24.70;49.50;;;;;;5112580;28;20082;-34
2021/08/13 02:50:42;;;;;;;1.02;1.00;;;24.70;49.50;;;;;;5115681;28;20051;-34
2021/08/13 02:53:13;;;;;;;1.35;1.25;;;24.70;49.50;;;;;;5115480;28;20099;-34
2021/08/13 02:56:02;;;;;;;1.05;1.05;;;24.70;49.50;;;;;;5115523;28;20146;-33
2021/08/13 02:58:52;;;;;;;0.98;0.98;;;24.70;49.50;;;;;;5115434;28;20059;-33
2021/08/13 03:01:23;;;;;;;1.05;0.98;;;24.70;49.50;;;;;;5133288;28;20062;-34
2021/08/13 03:03:52;;;;;;;0.80;0.80;;;24.70;49.50;;;;;;5115474;28;20192;-33
2021/08/13 03:06:20;;;;;;;1.00;1.00;;;24.70;49.60;;;;;;5114838;28;20058;-34
2021/08/13 03:08:47;;;;;;;1.02;1.00;;;24.70;49.50;;;;;;5113350;28;20055;-33
2021/08/13 03:11:16;;;;;;;1.00;1.00;;;24.70;49.50;;;;;;5114778;28;20379;-34
2021/08/13 03:13:43;;;;;;;1.08;1.00;;;24.70;49.60;;;;;;5131910;28;20146;-34
2021/08/13 03:16:10;;;;;;;0.80;0.80;;;24.70;50.10;;;;;;5133804;28;20142;-34
2021/08/13 03:18:44;;;;;;;1.02;0.95;;;24.70;49.60;;;;;;5112464;28;20055;-34
2021/08/13 03:21:10;;;;;;;1.30;1.20;;;24.70;49.60;;;;;;5115193;28;20153;-34
2021/08/13 03:23:38;;;;;;;1.23;1.10;;;24.70;49.60;;;;;;5113741;28;20052;-34
2021/08/13 03:26:06;;;;;;;0.98;0.88;;;24.60;49.60;;;;;;5114610;28;20081;-34
2021/08/13 03:28:33;;;;;;;1.05;0.93;;;24.70;49.60;;;;;;5114670;28;20047;-34
2021/08/13 03:30:59;;;;;;;1.20;1.10;;;24.60;49.60;;;;;;5112413;28;20047;-34
2021/08/13 03:33:26;;;;;;;0.90;0.90;;;24.60;49.60;;;;;;5114411;28;20051;-34
2021/08/13 03:35:56;;;;;;;1.38;1.25;;;24.70;49.70;;;;;;5114854;28;20143;-34
2021/08/13 03:38:22;;;;;;;1.20;1.10;;;24.60;49.60;;;;;;5114346;28;20054;-34
2021/08/13 03:40:48;;;;;;;0.85;0.85;;;24.60;49.60;;;;;;5114433;28;20047;-34
2021/08/13 03:43:13;;;;;;;1.00;1.00;;;24.70;49.70;;;;;;5115975;28;20046;-34
2021/08/13 03:45:39;;;;;;;1.00;1.00;;;24.60;49.70;;;;;;5117847;28;20043;-34
2021/08/13 03:48:06;;;;;;;0.90;0.90;;;24.60;49.70;;;;;;5116452;28;20047;-34
2021/08/13 03:50:34;;;;;;;1.35;1.20;;;24.60;49.70;;;;;;5117816;28;20062;-34
2021/08/13 03:53:00;;;;;;;1.15;1.02;;;24.60;49.70;;;;;;5117797;28;20151;-33
2021/08/13 03:55:25;;;;;;;1.20;1.10;;;24.60;49.70;;;;;;5118279;28;20039;-34
2021/08/13 03:57:52;;;;;;;1.10;1.10;;;24.60;49.70;;;;;;5118253;28;20398;-34
2021/08/13 04:00:17;;;;;;;0.80;0.80;;;24.60;49.70;;;;;;5136162;28;20139;-34
2021/08/13 04:02:44;;;;;;;0.82;0.82;;;24.60;49.70;;;;;;5136210;28;20151;-34
2021/08/13 04:05:11;;;;;;;1.00;1.00;;;24.50;49.70;;;;;;5136303;28;20070;-34
2021/08/13 04:07:39;;;;;;;0.90;0.90;;;24.60;49.70;;;;;;5116260;28;20053;-34
2021/08/13 04:10:07;;;;;;;1.17;1.05;;;24.60;49.70;;;;;;5117498;28;20138;-33
2021/08/13 04:12:33;;;;;;;1.10;1.00;;;24.60;49.70;;;;;;5117804;28;20043;-34
2021/08/13 04:15:20;;;;;;;1.05;0.95;;;24.60;49.70;;;;;;5136090;28;20039;-34
2021/08/13 04:17:48;;;;;;;1.15;1.08;;;24.60;49.70;;;;;;5117355;28;20506;-34
2021/08/13 04:20:15;;;;;;;1.00;1.00;;;24.60;49.70;;;;;;5116786;28;20053;-33
2021/08/13 04:22:45;;;;;;;0.90;0.90;;;24.60;49.70;;;;;;5118031;28;20132;-33
2021/08/13 04:25:12;;;;;;;1.20;1.10;;;24.60;49.70;;;;;;5100383;28;20490;-33
2021/08/13 04:27:38;;;;;;;1.13;1.02;;;24.60;49.70;;;;;;5117577;28;20107;-33
2021/08/13 04:30:05;;;;;;;0.90;0.90;;;24.60;49.70;;;;;;5117057;28;20490;-33
2021/08/13 04:32:41;;;;;;;1.27;1.17;;;24.60;49.60;;;;;;5117405;28;20387;-33
2021/08/13 04:35:10;;;;;;;1.23;1.13;;;24.70;49.60;;;;;;5116231;28;20059;-33
2021/08/13 04:37:36;;;;;;;1.35;1.25;;;24.70;49.50;;;;;;5116891;28;20123;-33
2021/08/13 04:40:04;;;;;;;1.00;1.00;;;24.80;49.50;;;;;;5116952;28;20152;-33
2021/08/13 04:42:32;;;;;;;1.00;1.00;;;24.80;49.30;;;;;;5117379;28;20458;-33
2021/08/13 04:44:58;;;;;;;1.10;1.00;;;24.80;49.30;;;;;;5116911;28;20081;-33
2021/08/13 04:47:24;;;;;;;1.05;1.05;;;24.80;49.20;;;;;;5117259;28;20510;-33
2021/08/13 04:49:50;;;;;;;1.05;0.95;;;24.80;49.20;;;;;;5116135;28;20418;-33
2021/08/13 04:52:20;;;;;;;0.82;0.82;;;24.90;49.20;;;;;;5115727;28;20055;-33
2021/08/13 04:54:47;;;;;;;1.10;1.00;;;24.90;49.10;;;;;;5114276;28;20044;-33
2021/08/13 04:57:13;;;;;;;1.00;0.90;;;24.90;49.10;;;;;;5114832;28;20055;-33
2021/08/13 04:59:39;;;;;;;1.13;1.08;;;25.00;49.20;;;;;;5115911;28;20061;-33
2021/08/13 05:02:08;;;;;;;1.15;1.05;;;25.00;49.00;;;;;;5116448;28;20058;-34
2021/08/13 05:04:34;;;;;;;1.10;1.00;;;25.10;48.90;;;;;;5115043;28;20051;-33
2021/08/13 05:06:59;;;;;;;0.93;0.93;;;25.10;48.70;;;;;;5116606;28;20039;-34
2021/08/13 05:09:26;;;;;;;1.20;1.00;;;25.20;48.60;;;;;;5115930;28;20108;-34
2021/08/13 05:11:51;;;;;;;0.95;0.95;;;25.30;48.50;;;;;;5116584;28;20059;-34
2021/08/13 05:14:19;;;;;;;1.08;1.02;;;25.40;48.40;;;;;;5116595;28;20130;-34
2021/08/13 05:16:44;;;;;;;1.25;1.15;;;25.40;48.30;;;;;;5116452;28;20482;-33
2021/08/13 05:19:10;;;;;;;1.35;1.25;;;25.50;48.20;;;;;;5115418;28;20396;-34
2021/08/13 05:21:38;;;;;;;1.13;1.02;;;25.50;48.00;;;;;;5116389;28;20043;-34
2021/08/13 05:24:05;;;;;;;1.23;1.13;;;25.60;48.00;;;;;;5116248;28;20471;-34
2021/08/13 05:26:31;;;;;;;0.90;0.90;;;25.60;47.80;;;;;;5134769;28;20506;-34
2021/08/13 05:28:56;;;;;;;0.90;0.90;;;25.70;47.70;;;;;;5116283;28;20047;-34
2021/08/13 05:31:22;;;;;;;0.88;0.88;;;25.80;47.60;;;;;;5114810;28;20498;-34
2021/08/13 05:33:48;;;;;;;1.00;1.00;;;25.80;47.50;;;;;;5116663;28;20058;-34
2021/08/13 05:36:16;;;;;;;1.10;1.05;;;25.90;47.40;;;;;;5115472;28;20495;-33
2021/08/13 05:38:42;;;;;;;1.27;1.17;;;25.90;47.20;;;;;;5116440;28;20047;-34
2021/08/13 05:41:08;;;;;;;1.45;1.10;;;26.00;47.10;;;;;;5116354;28;20055;-34
2021/08/13 05:43:33;;;;;;;0.90;0.90;;;26.10;47.00;;;;;;5115828;28;20474;-34
2021/08/13 05:45:59;;;;;;;0.80;0.80;;;26.20;46.90;;;;;;5134423;28;20151;-34
2021/08/13 05:48:25;;;;;;;1.30;1.20;;;26.20;46.70;;;;;;5116399;28;20463;-33
2021/08/13 05:50:51;;;;;;;1.27;1.17;;;26.30;46.60;;;;;;5115916;28;20116;-33
2021/08/13 05:53:17;;;;;;;1.40;1.30;;;26.40;46.50;;;;;;5115378;28;20054;-33
2021/08/13 05:55:42;;;;;;;0.88;0.88;;;26.50;46.40;;;;;;5115799;28;20050;-33
2021/08/13 05:58:08;;;;;;;1.20;1.10;;;26.50;46.20;;;;;;5115988;28;20039;-33
2021/08/13 06:00:34;;;;;;;0.95;0.95;;;26.60;46.10;;;;;;5115956;28;20522;-33
2021/08/13 06:03:05;;;;;;;0.70;0.70;;;26.60;45.90;;;;;;5115920;28;20039;-33
2021/08/13 06:05:35;;;;;;;1.02;1.02;;;26.80;46.00;;;;;;5115740;28;20459;-33
2021/08/13 06:08:03;;;;;;;1.15;1.02;;;26.80;45.80;;;;;;5116196;28;20063;-33
2021/08/13 06:10:29;;;;;;;1.05;1.00;;;26.90;45.80;;;;;;5116078;28;20051;-33
2021/08/13 06:12:55;;;;;;;1.08;1.08;;;26.90;45.70;;;;;;5115410;28;20055;-33
2021/08/13 06:15:21;;;;;;;1.25;1.10;;;26.90;45.70;;;;;;5115267;28;20364;-33
2021/08/13 06:17:47;;;;;;;1.08;1.02;;;27.00;45.60;;;;;;5134249;28;20187;-33
2021/08/13 06:20:18;;;;;;;1.27;1.17;;;27.00;45.50;;;;;;5113994;28;20055;-33
2021/08/13 06:22:48;;;;;;;1.33;1.20;;;27.00;45.40;;;;;;5115246;28;20399;-33
2021/08/13 06:25:14;;;;;;;1.30;1.20;;;27.10;45.30;;;;;;5133613;28;20514;-33
2021/08/13 06:27:41;;;;;;;0.95;0.95;;;27.20;45.20;;;;;;5133383;28;20090;-33
2021/08/13 06:30:13;;;;;;;1.25;1.15;;;27.20;45.10;;;;;;5115294;28;20477;-33
2021/08/13 06:32:38;;;;;;;;;;;27.30;45.00;;;;;;5134399;28;20085;-33
2021/08/13 06:35:05;;;;;;;1.15;1.05;;;27.40;44.90;;;;;;5115366;28;19942;-34
2021/08/13 06:37:32;;;;;;;0.88;0.88;;;27.40;44.70;;;;;;5134077;28;20463;-34
2021/08/13 06:39:58;;;;;;;1.25;1.15;;;27.50;44.70;;;;;;5133983;28;20384;-34
2021/08/13 06:42:24;;;;;;;1.27;1.05;;;27.50;44.60;;;;;;5115104;28;20084;-34
2021/08/13 06:45:15;;;;;;;1.30;1.20;;;27.60;44.60;;;;;;5115485;28;20255;-36
2021/08/13 06:47:41;;;;;;;1.30;1.20;;;27.50;44.90;;;;;;5115031;28;20051;-36
2021/08/13 06:50:08;;;;;;;0.93;0.93;;;27.40;45.00;;;;;;5114857;28;20047;-36
2021/08/13 06:52:37;;;;;;;1.30;1.20;;;27.30;45.10;;;;;;5114856;28;20043;-36
2021/08/13 06:55:05;;;;;;;1.25;1.15;;;27.30;45.20;;;;;;5114894;28;20043;-37
2021/08/13 06:57:32;;;;;;;1.20;1.10;;;27.30;45.20;;;;;;5114745;28;20054;-37
2021/08/13 07:00:04;;;;;;;1.23;1.13;;;27.30;45.30;;;;;;5114798;28;20490;-36
2021/08/13 07:02:30;;;;;;;0.88;0.88;;;27.30;45.30;;;;;;5115346;28;20065;-36
2021/08/13 07:04:56;;;;;;;0.93;0.93;;;27.30;45.20;;;;;;5114737;28;20047;-37
2021/08/13 07:07:21;;;;;;;1.00;1.00;;;27.40;45.10;;;;;;5133078;28;20061;-37
2021/08/13 07:09:48;;;;;;;1.00;0.95;;;27.40;45.00;;;;;;5133191;28;20082;-36
2021/08/13 07:12:18;;;;;;;1.00;1.00;;;27.50;44.80;;;;;;5112630;28;20097;-36
2021/08/13 07:14:44;;;;;;;0.93;0.93;;;27.50;44.80;;;;;;5114246;28;20051;-36
2021/08/13 07:17:10;;;;;;;1.13;1.02;;;27.50;44.90;;;;;;5113905;28;20097;-36
2021/08/13 07:19:36;;;;;;;0.90;0.90;;;27.60;44.80;;;;;;5116177;28;20055;-36
2021/08/13 07:22:03;;;;;;;1.10;1.00;;;27.60;44.60;;;;;;5118109;28;20082;-36
2021/08/13 07:24:30;;;;;;;1.08;1.00;;;27.70;44.60;;;;;;5117878;28;20043;-36
2021/08/13 07:26:56;;;;;;;1.30;1.20;;;27.70;44.40;;;;;;5136503;28;20096;-36
2021/08/13 07:29:23;;;;;;;1.20;1.10;;;27.70;44.50;;;;;;5115742;28;20056;-36
2021/08/13 07:31:49;;;;;;;1.40;1.30;;;27.60;44.60;;;;;;5117477;28;20622;-38
2021/08/13 07:34:15;;;;;;;1.13;1.02;;;27.60;44.60;;;;;;5118046;28;20055;-36
2021/08/13 07:36:41;;;;;;;1.20;1.10;;;27.60;44.70;;;;;;5116317;28;20051;-36
2021/08/13 07:39:07;;;;;;;1.30;1.20;;;27.60;44.70;;;;;;5117723;28;20137;-36
2021/08/13 07:41:32;;;;;;;1.00;1.00;;;27.60;44.60;;;;;;5117820;28;20050;-36
2021/08/13 07:43:58;;;;;;;1.13;1.02;;;27.60;45.10;;;;;;5136973;28;20552;-36
2021/08/13 07:46:24;;;;;;;0.90;0.90;;;27.70;44.60;;;;;;5117639;28;20051;-36
2021/08/13 07:48:49;;;;;;;1.33;1.23;;;27.70;44.40;;;;;;5116901;28;20213;-36
2021/08/13 07:51:15;;;;;;;1.23;1.13;;;27.80;44.40;;;;;;5116398;28;20096;-37
2021/08/13 07:53:42;;;;;;;0.93;0.93;;;27.80;44.20;;;;;;5117972;28;20047;-37
2021/08/13 07:56:09;;;;;;;1.30;1.20;;;27.90;44.30;;;;;;5100753;28;20490;-37
2021/08/13 07:58:36;;;;;;;1.10;1.00;;;27.90;44.20;;;;;;5117434;28;20059;-36
2021/08/13 08:01:02;;;;;;;1.17;1.13;;;27.90;44.10;;;;;;5117374;28;20454;-37
2021/08/13 08:03:28;;;;;;;1.10;1.00;;;27.90;44.10;;;;;;5136036;28;20055;-36
2021/08/13 08:05:53;;;;;;;0.95;0.93;;;27.90;44.00;;;;;;5135673;28;20051;-36
2021/08/13 08:08:19;;;;;;;1.40;1.30;;;28.00;44.10;;;;;;5135796;28;20526;-37
2021/08/13 08:10:47;;;;;;;1.15;1.02;;;28.00;44.10;;;;;;5135903;28;20058;-37
2021/08/13 08:13:17;;;;;;;1.23;1.13;;;28.00;44.00;;;;;;5135641;28;20070;-36
2021/08/13 08:15:45;;;;;;;1.13;1.02;;;28.00;44.00;;;;;;5135714;28;20397;-36
2021/08/13 08:18:11;;;;;;;1.20;1.10;;;28.00;44.50;;;;;;5117141;28;20091;-36
2021/08/13 08:20:38;;;;;;;1.13;1.10;;;28.00;43.90;;;;;;5135378;28;20067;-36
2021/08/13 08:23:04;;;;;;;0.90;0.90;;;28.00;43.90;;;;;;5135779;28;20050;-37
2021/08/13 08:25:30;;;;;;;1.33;1.23;;;28.10;44.00;;;;;;5135676;28;20099;-36
2021/08/13 08:27:56;;;;;;;1.77;1.15;;;28.00;43.90;;;;;;5134898;28;20055;-36
2021/08/13 08:30:22;;;;;;;1.27;1.17;;;28.00;43.90;;;;;;5134075;27;20066;-37
2021/08/13 08:32:48;;;;;;;1.08;1.02;;;28.00;43.90;;;;;;5135731;28;20039;-36
2021/08/13 08:35:14;;;;;;;1.42;1.33;;;28.10;43.90;;;;;;5135310;28;20047;-36
2021/08/13 08:37:59;;;;;;;1.17;1.08;;;28.10;43.90;;;;;;5134899;28;20497;-37
2021/08/13 08:40:37;;;;;;;1.50;1.40;;;28.00;43.90;;;;;;5135205;28;20051;-36
2021/08/13 08:43:06;;;;;;;1.30;1.20;;;28.00;44.00;;;;;;5117132;28;20057;-36
2021/08/13 08:45:35;;;;;;;1.30;1.20;;;27.90;44.00;;;;;;5135109;28;20126;-36
2021/08/13 08:48:10;;;;;;;1.30;1.02;;;27.90;44.60;;;;;;5134884;28;20063;-36
2021/08/13 08:50:40;;;;;;;1.30;1.10;;;27.90;44.10;;;;;;5135313;28;20575;-36
2021/08/13 08:53:15;;;;;;;1.02;1.02;;;27.90;44.20;;;;;;5135271;28;20054;-36
2021/08/13 08:55:41;;;;;;;1.35;1.23;;;27.90;44.30;;;;;;5135153;28;20054;-36
2021/08/13 08:58:07;;;;;;;1.13;1.02;;;27.90;44.30;;;;;;5134958;28;20550;-36
2021/08/13 09:00:33;;;;;;;1.17;1.10;;;27.80;44.30;;;;;;5135447;28;20063;-37
2021/08/13 09:02:59;;;;;;;1.45;1.35;;;27.80;44.30;;;;;;5134898;28;20057;-36
2021/08/13 09:05:25;;;;;;;1.33;1.23;;;27.80;44.30;;;;;;5134895;28;20105;-36
2021/08/13 09:07:51;;;;;;;1.20;1.10;;;27.80;44.40;;;;;;5134916;28;20466;-37
2021/08/13 09:10:16;;;;;;;1.10;1.00;;;27.70;44.30;;;;;;5135211;28;20443;-36
2021/08/13 09:12:42;;;;;;;1.15;1.05;;;27.70;44.40;;;;;;5135047;28;20395;-37
2021/08/13 09:15:42;;;;;;;1.20;1.10;;;27.70;44.40;;;;;;5134906;28;20043;-36
2021/08/13 09:18:11;;;;;;;1.92;1.77;;;27.70;44.50;;;;;;5135302;28;20387;-37
2021/08/13 09:20:41;;;;;;;1.45;1.35;;;27.70;44.50;;;;;;5134702;28;20047;-37
2021/08/13 09:23:07;;;;;;;1.30;1.20;;;27.70;44.50;;;;;;5135028;28;20055;-36
2021/08/13 09:25:33;;;;;;;1.20;1.10;;;27.70;44.50;;;;;;5134690;28;20059;-37
2021/08/13 09:28:18;;;;;;;2.10;1.60;;;27.70;44.50;;;;;;5134530;28;20062;-37
2021/08/13 09:31:09;;;;;;;2.22;1.20;;;27.70;44.40;;;;;;5116023;28;20100;-36
2021/08/13 09:33:35;;;;;;;0.93;0.93;;;27.70;44.40;;;;;;5116578;28;20050;-38
2021/08/13 09:36:01;;;;;;;1.20;1.10;;;27.70;44.40;;;;;;5134501;28;20076;-36
2021/08/13 09:38:28;;;;;;;1.25;1.15;;;27.70;44.40;;;;;;5116044;28;20108;-36
2021/08/13 09:41:05;;;;;;;1.23;1.13;;;27.80;44.40;;;;;;5134320;27;20141;-38
2021/08/13 09:43:31;;;;;;;1.00;1.00;;;27.80;44.30;;;;;;5134276;28;20043;-36
2021/08/13 09:46:06;;;;;;;1.23;1.13;;;27.80;44.30;;;;;;5134169;28;20058;-36
2021/08/13 09:48:32;;;;;;;1.17;1.08;;;27.90;44.30;;;;;;5134243;28;20051;-36
2021/08/13 09:50:58;;;;;;;1.30;1.20;;;27.90;44.20;;;;;;5134268;28;20047;-36
2021/08/13 09:53:24;;;;;;;1.27;1.17;;;27.90;44.20;;;;;;5115709;28;20043;-37
2021/08/13 09:55:49;;;;;;;1.50;1.40;;;27.90;44.20;;;;;;5116348;28;20089;-35
2021/08/13 09:58:24;;;;;;;2.03;1.10;;;27.90;44.20;;;;;;5134006;28;20043;-35
2021/08/13 10:00:50;;;;;;;1.20;1.10;;;27.90;44.20;;;;;;5115678;28;20046;-36
2021/08/13 10:03:19;;;;;;;1.40;1.30;;;27.90;44.20;;;;;;5115991;28;20104;-36
2021/08/13 10:06:00;;;;;;;0.90;0.90;;;27.90;44.20;;;;;;5133803;28;20043;-36
2021/08/13 10:08:40;;;;;;;1.30;1.10;;;27.90;44.10;;;;;;5115476;28;20089;-36
2021/08/13 10:11:14;;;;;;;1.40;1.30;;;27.90;44.10;;;;;;5115503;28;20057;-36
2021/08/13 10:13:45;;;;;;;1.23;1.13;;;27.90;44.10;;;;;;5115928;28;20107;-36
2021/08/13 10:16:28;;;;;;;1.00;1.00;;;28.00;44.10;;;;;;5115498;28;20420;-37
2021/08/13 10:18:59;;;;;;;1.05;1.00;;;28.00;44.20;;;;;;5115229;28;20484;-37
2021/08/13 10:21:29;;;;;;;1.30;1.20;;;28.00;44.20;;;;;;5115580;28;20134;-36
2021/08/13 10:23:56;;;;;;;1.55;1.45;;;28.00;44.10;;;;;;5114725;28;20101;-36
2021/08/13 10:26:23;;;;;;;1.48;1.27;;;28.00;44.10;;;;;;5114089;28;20050;-36
2021/08/13 10:28:50;;;;;;;1.10;1.10;;;28.00;44.10;;;;;;5115143;28;20402;-35
2021/08/13 10:31:18;;;;;;;1.50;1.40;;;28.00;44.10;;;;;;5115147;28;20050;-36
2021/08/13 10:33:52;;;;;;;1.30;1.20;;;28.00;44.10;;;;;;5115584;28;20047;-36
2021/08/13 10:36:19;;;;;;;1.23;1.13;;;28.00;44.00;;;;;;5133430;28;20051;-35
2021/08/13 10:38:50;;;;;;;1.75;1.48;;;28.00;44.00;;;;;;5114562;28;20090;-35
2021/08/13 10:41:25;;;;;;;1.27;1.17;;;28.00;44.10;;;;;;5115358;28;20146;-35
2021/08/13 10:43:56;;;;;;;1.20;1.10;;;28.00;44.00;;;;;;5115766;28;20046;-36
2021/08/13 10:46:31;;;;;;;1.38;1.27;;;28.00;44.00;;;;;;5115477;28;20047;-36
2021/08/13 10:48:58;;;;;;;1.30;1.20;;;28.00;44.60;;;;;;5113819;28;20105;-35
2021/08/13 10:51:29;;;;;;;1.30;1.20;;;28.00;44.00;;;;;;5114797;27;20055;-36
2021/08/13 10:54:08;;;;;;;1.30;1.20;;;28.00;44.00;;;;;;5114946;28;20195;-36
2021/08/13 10:56:44;;;;;;;1.20;1.10;;;28.10;44.00;;;;;;5115513;28;20391;-36
2021/08/13 10:59:39;;;;;;;1.50;1.40;;;28.10;44.00;;;;;;5114636;28;20080;-36
2021/08/13 11:02:12;;;;;;;1.80;1.70;;;28.10;43.90;;;;;;5114049;28;20047;-36
2021/08/13 11:04:48;;;;;;;1.33;1.20;;;28.10;44.40;;;;;;5112849;28;20551;-36
2021/08/13 11:07:34;;;;;;;1.20;1.10;;;28.10;43.80;;;;;;5133283;28;20059;-36
2021/08/13 11:10:01;;;;;;;1.30;1.20;;;28.10;43.90;;;;;;5132536;28;20138;-36
2021/08/13 11:12:29;;;;;;;1.30;1.20;;;28.10;43.90;;;;;;5114760;28;20096;-37
2021/08/13 11:14:55;;;;;;;1.25;1.15;;;28.10;43.90;;;;;;5114697;28;20054;-36
2021/08/13 11:17:39;;;;;;;1.30;1.20;;;28.10;43.90;;;;;;5114721;28;20051;-36
2021/08/13 11:20:12;;;;;;;1.45;1.20;;;28.10;43.90;;;;;;5115126;28;20546;-36
2021/08/13 11:22:43;;;;;;;1.40;1.10;;;28.10;44.00;;;;;;5114540;28;20085;-36
2021/08/13 11:25:11;;;;;;;1.40;1.30;;;28.10;44.00;;;;;;5113515;28;20044;-36
2021/08/13 11:27:38;;;;;;;1.30;1.20;;;28.00;44.00;;;;;;5115097;28;20081;-36
2021/08/13 11:30:25;;;;;;;1.50;1.23;;;28.10;44.10;;;;;;5133028;28;20055;-36
2021/08/13 11:33:14;;;;;;;1.27;1.20;;;28.10;44.00;;;;;;5113360;28;20058;-37
2021/08/13 11:35:42;;;;;;;2.15;1.55;;;28.10;44.00;;;;;;5114734;28;20186;-36
2021/08/13 11:38:07;;;;;;;1.20;1.10;;;28.10;44.00;;;;;;5112636;28;20051;-36
2021/08/13 11:40:33;;;;;;;1.20;1.10;;;28.10;44.00;;;;;;5114438;28;20051;-37
2021/08/13 11:43:02;;;;;;;1.50;1.40;;;28.10;44.00;;;;;;5113642;28;20052;-37
2021/08/13 11:45:35;;;;;;;1.20;1.10;;;28.00;43.90;;;;;;5113798;28;20059;-36
2021/08/13 11:48:03;;;;;;;1.23;1.10;;;28.10;43.90;;;;;;5114030;28;20478;-35
2021/08/13 11:50:29;;;;;;;1.67;1.58;;;28.20;43.90;;;;;;5114455;28;20104;-36
2021/08/13 11:52:55;;;;;;;1.60;1.50;;;28.20;43.80;;;;;;5114268;28;20050;-35
2021/08/13 11:55:29;;;;;;;1.30;1.20;;;28.20;43.80;;;;;;5114213;28;20051;-36
2021/08/13 11:58:00;;;;;;;1.40;1.30;;;28.20;43.80;;;;;;5113893;28;20464;-36
2021/08/13 12:00:35;;;;;;;1.05;0.98;;;28.20;43.80;;;;;;5114469;28;20491;-36
2021/08/13 12:03:07;;;;;;;1.42;1.33;;;28.20;43.80;;;;;;5113582;27;20556;-36
2021/08/13 12:05:36;;;;;;;1.35;1.25;;;28.20;43.80;;;;;;5118091;28;20526;-35
2021/08/13 12:08:04;;;;;;;1.40;1.30;;;28.20;43.80;;;;;;5116763;28;20136;-36
2021/08/13 12:10:32;;;;;;;1.38;1.27;;;28.20;43.80;;;;;;5116346;28;20047;-36
2021/08/13 12:13:08;;;;;;;1.50;1.40;;;28.20;43.70;;;;;;5118054;28;20059;-35
2021/08/13 12:15:39;;;;;;;1.35;1.25;;;28.20;43.80;;;;;;5117492;28;20482;-36
2021/08/13 12:18:09;;;;;;;1.40;1.30;;;28.20;43.80;;;;;;5117448;28;20127;-36
2021/08/13 12:20:38;;;;;;;1.52;1.42;;;28.20;43.80;;;;;;5136226;28;20468;-36
2021/08/13 12:23:09;;;;;;;1.60;1.50;;;28.20;43.80;;;;;;5117254;28;20053;-36
2021/08/13 12:25:40;;;;;;;1.00;1.00;;;28.20;43.80;;;;;;5117499;28;20051;-35
2021/08/13 12:28:06;;;;;;;1.38;1.27;;;28.20;43.80;;;;;;5117150;28;21088;-35
2021/08/13 12:30:33;;;;;;;1.55;1.40;;;28.20;43.70;;;;;;5117132;28;20063;-36
2021/08/13 12:33:00;;;;;;;1.27;1.17;;;28.20;43.80;;;;;;5117189;28;20081;-36
2021/08/13 12:35:35;;;;;;;1.50;1.40;;;28.20;43.80;;;;;;5117092;28;20047;-35
2021/08/13 12:38:01;;;;;;;1.42;1.33;;;28.20;43.80;;;;;;5135606;28;20070;-36
2021/08/13 12:40:26;;;;;;;1.45;1.35;;;28.20;43.80;;;;;;5117371;28;20483;-36
2021/08/13 12:42:53;;;;;;;1.58;1.48;;;28.20;43.80;;;;;;5116479;28;20070;-37
2021/08/13 12:45:21;;;;;;;1.20;1.20;;;28.20;43.80;;;;;;5117347;28;20530;-36
2021/08/13 12:47:50;;;;;;;1.42;1.27;;;28.20;43.90;;;;;;5116960;28;20047;-36
2021/08/13 12:50:22;;;;;;;1.50;1.40;;;28.10;43.90;;;;;;5115307;28;20047;-37
2021/08/13 12:53:01;;;;;;;1.30;1.20;;;28.10;43.90;;;;;;5117144;28;20460;-36
2021/08/13 12:55:35;;;;;;;2.13;1.40;;;28.10;44.00;;;;;;5117264;28;20039;-36
2021/08/13 12:58:01;;;;;;;1.55;1.45;;;28.10;44.10;;;;;;5117151;28;20105;-36
2021/08/13 13:00:30;;;;;;;1.48;1.38;;;28.00;44.00;;;;;;5135778;28;20471;-37